Time;durP1;ratioP1;P1;durP2;ratioP2;P2;SDS_P1;SDS_P2;PMS_P1;PMS_P2;Temp;Humidity;BMP_temperature;BMP_pressure;BME280_temperature;BME280_humidity;BME280_pressure;Samples;Min_cycle;Max_cycle;Signal;HPM_P1;HPM_P2
2022/02/15 00:00:15;;;;;;;20.45;10.05;;;9.10;99.90;;;;;;5040214;28;20057;-68
2022/02/15 00:03:20;;;;;;;16.67;10.00;;;9.20;99.90;;;;;;5030440;28;20412;-68
2022/02/15 00:06:24;;;;;;;15.70;9.38;;;9.20;99.90;;;;;;5031279;28;20060;-67
2022/02/15 00:09:28;;;;;;;23.83;10.55;;;9.10;99.90;;;;;;5029803;28;20052;-68
2022/02/15 00:12:32;;;;;;;18.63;10.40;;;9.20;99.90;;;;;;5030278;28;20060;-68
2022/02/15 00:15:36;;;;;;;22.98;10.13;;;9.10;99.90;;;;;;5030119;28;20049;-68
2022/02/15 00:18:41;;;;;;;26.92;10.65;;;9.20;99.90;;;;;;5029548;28;20051;-68
2022/02/15 00:21:45;;;;;;;14.68;9.55;;;9.20;99.90;;;;;;5030243;28;20388;-68
2022/02/15 00:24:50;;;;;;;13.50;9.85;;;9.20;99.90;;;;;;5030085;28;20053;-68
2022/02/15 00:27:54;;;;;;;20.67;9.73;;;9.10;99.90;;;;;;5029845;28;20040;-68
2022/02/15 00:30:59;;;;;;;24.48;10.50;;;9.20;99.90;;;;;;5029570;28;20036;-68
2022/02/15 00:34:03;;;;;;;19.40;10.63;;;9.20;99.90;;;;;;5030327;28;20033;-68
2022/02/15 00:37:07;;;;;;;21.60;10.30;;;9.30;99.90;;;;;;5029959;28;20052;-68
2022/02/15 00:40:13;;;;;;;22.77;11.02;;;9.30;99.90;;;;;;5029452;28;20044;-68
2022/02/15 00:43:17;;;;;;;20.67;10.48;;;9.10;99.90;;;;;;5029749;28;20495;-67
2022/02/15 00:46:22;;;;;;;20.60;10.30;;;9.10;99.90;;;;;;5028808;28;20527;-68
2022/02/15 00:49:26;;;;;;;21.73;10.77;;;9.00;99.90;;;;;;5028213;28;20048;-69
2022/02/15 00:52:30;;;;;;;18.23;10.07;;;9.10;99.90;;;;;;5029915;28;20044;-68
2022/02/15 00:55:34;;;;;;;22.52;9.75;;;9.20;99.90;;;;;;5029828;28;20032;-68
2022/02/15 00:58:38;;;;;;;20.55;8.65;;;9.20;99.90;;;;;;5029354;28;20495;-69
2022/02/15 01:01:42;;;;;;;11.77;7.63;;;9.20;99.90;;;;;;5030154;28;20044;-68
2022/02/15 01:04:46;;;;;;;18.27;8.57;;;9.20;99.90;;;;;;5029947;28;20496;-67
2022/02/15 01:07:50;;;;;;;20.42;7.28;;;9.30;99.90;;;;;;5030206;28;20052;-69
2022/02/15 01:10:54;;;;;;;11.23;6.78;;;9.20;99.90;;;;;;5031437;28;20302;-68
2022/02/15 01:13:59;;;;;;;9.65;5.75;;;9.30;99.90;;;;;;5032346;28;20037;-68
2022/02/15 01:17:04;;;;;;;8.95;5.72;;;9.40;99.90;;;;;;5033679;28;20040;-68
2022/02/15 01:20:08;;;;;;;13.38;6.32;;;9.50;99.90;;;;;;5032975;28;20045;-68
2022/02/15 01:23:14;;;;;;;10.15;6.25;;;9.60;99.90;;;;;;5033593;28;20338;-68
2022/02/15 01:26:18;;;;;;;11.80;6.03;;;9.60;99.90;;;;;;5032973;28;20056;-68
2022/02/15 01:29:23;;;;;;;11.70;6.40;;;9.60;99.90;;;;;;5032497;28;20044;-67
2022/02/15 01:32:28;;;;;;;15.20;7.10;;;9.50;99.90;;;;;;5032372;28;20044;-67
2022/02/15 01:35:32;;;;;;;15.02;7.65;;;9.50;99.90;;;;;;5032210;28;20052;-69
2022/02/15 01:38:37;;;;;;;17.60;7.32;;;9.60;99.90;;;;;;5033153;28;20448;-67
2022/02/15 01:41:43;;;;;;;10.82;5.88;;;9.70;99.90;;;;;;5032842;28;20052;-68
2022/02/15 01:44:48;;;;;;;14.13;6.25;;;9.70;99.90;;;;;;5031952;28;20039;-69
2022/02/15 01:47:53;;;;;;;10.65;6.53;;;9.70;99.90;;;;;;5031631;28;20076;-68
2022/02/15 01:50:58;;;;;;;11.55;6.13;;;9.60;99.90;;;;;;5031849;28;20037;-69
2022/02/15 01:54:03;;;;;;;12.70;6.10;;;9.60;99.90;;;;;;5031963;28;20052;-68
2022/02/15 01:57:09;;;;;;;12.55;6.45;;;9.60;99.90;;;;;;5031660;28;20082;-68
2022/02/15 02:00:18;;;;;;;9.05;5.97;;;9.50;99.90;;;;;;5032386;28;20056;-68
2022/02/15 02:03:29;;;;;;;11.45;5.30;;;9.50;99.90;;;;;;5032148;28;20392;-68
2022/02/15 02:06:34;;;;;;;9.05;4.55;;;9.60;99.90;;;;;;5031851;28;20056;-70
2022/02/15 02:09:38;;;;;;;9.55;3.80;;;9.70;99.90;;;;;;5032431;28;20038;-68
2022/02/15 02:12:42;;;;;;;10.63;3.85;;;9.80;99.90;;;;;;5031370;28;20037;-70
2022/02/15 02:15:48;;;;;;;9.32;3.50;;;9.90;99.90;;;;;;5032116;28;20372;-69
2022/02/15 02:18:53;;;;;;;6.78;3.22;;;9.90;99.90;;;;;;5032291;28;20504;-68
2022/02/15 02:22:06;;;;;;;9.13;3.50;;;9.90;99.90;;;;;;5030371;28;20068;-69
2022/02/15 02:25:12;;;;;;;5.75;2.63;;;10.20;99.90;;;;;;5032529;28;20046;-69
2022/02/15 02:28:18;;;;;;;8.82;3.15;;;10.20;99.90;;;;;;5031362;28;20040;-69
2022/02/15 02:31:23;;;;;;;5.60;3.33;;;10.30;99.90;;;;;;5032131;28;20060;-69
2022/02/15 02:34:34;;;;;;;6.97;3.75;;;10.20;99.90;;;;;;5031434;28;20632;-69
2022/02/15 02:37:38;;;;;;;4.88;2.83;;;10.40;99.90;;;;;;5031245;28;20048;-68
2022/02/15 02:40:43;;;;;;;3.67;2.45;;;10.40;99.90;;;;;;5031513;28;20491;-68
2022/02/15 02:43:49;;;;;;;6.63;3.10;;;10.40;99.90;;;;;;5031235;28;20507;-69
2022/02/15 02:46:53;;;;;;;7.00;2.80;;;10.50;99.90;;;;;;5030743;28;20488;-68
2022/02/15 02:50:04;;;;;;;8.80;4.05;;;10.50;99.90;;;;;;5030380;28;20048;-68
2022/02/15 02:53:16;;;;;;;9.68;4.10;;;10.60;99.90;;;;;;5030773;28;20041;-68
2022/02/15 02:56:22;;;;;;;10.27;3.58;;;10.60;99.90;;;;;;5031538;28;20040;-68
2022/02/15 02:59:31;;;;;;;5.95;3.17;;;10.70;99.90;;;;;;5030112;28;20064;-68
2022/02/15 03:02:41;;;;;;;5.65;3.38;;;10.50;99.90;;;;;;5030267;28;20044;-69
2022/02/15 03:05:47;;;;;;;8.32;3.80;;;10.20;99.90;;;;;;5030473;28;20040;-67
2022/02/15 03:08:53;;;;;;;11.35;4.90;;;9.70;99.90;;;;;;5029800;28;20049;-68
2022/02/15 03:11:58;;;;;;;6.45;4.45;;;9.30;99.90;;;;;;5030319;28;20388;-70
2022/02/15 03:15:02;;;;;;;10.38;6.57;;;9.10;99.90;;;;;;5031055;28;20048;-71
2022/02/15 03:18:08;;;;;;;10.70;6.13;;;8.90;99.90;;;;;;5030320;28;20044;-73
2022/02/15 03:21:12;;;;;;;16.70;7.78;;;8.80;99.90;;;;;;5030371;28;20040;-71
2022/02/15 03:24:16;;;;;;;11.43;7.90;;;8.70;99.90;;;;;;5031316;28;20060;-69
2022/02/15 03:27:23;;;;;;;11.82;8.00;;;8.70;99.90;;;;;;5030566;28;20052;-69
2022/02/15 03:30:29;;;;;;;12.40;7.85;;;8.70;99.90;;;;;;5029778;28;20068;-69
2022/02/15 03:33:35;;;;;;;12.70;6.75;;;8.70;99.90;;;;;;5029891;28;20056;-69
2022/02/15 03:36:39;;;;;;;8.82;6.60;;;8.60;99.90;;;;;;5031117;28;20491;-68
2022/02/15 03:39:46;;;;;;;6.53;4.60;;;8.60;99.90;;;;;;5029869;28;20052;-70
2022/02/15 03:43:05;;;;;;;6.80;4.45;;;8.70;99.90;;;;;;5029884;28;20048;-69
2022/02/15 03:46:10;;;;;;;6.63;4.40;;;8.60;99.90;;;;;;5029995;28;20505;-69
2022/02/15 03:49:17;;;;;;;7.13;3.92;;;8.60;99.90;;;;;;5029679;28;20068;-69
2022/02/15 03:52:25;;;;;;;6.57;4.15;;;8.60;99.90;;;;;;5029843;28;20048;-69
2022/02/15 03:55:29;;;;;;;7.05;4.07;;;8.50;99.90;;;;;;5030691;28;20063;-69
2022/02/15 03:58:33;;;;;;;5.50;3.80;;;8.60;99.90;;;;;;5029621;28;20033;-68
2022/02/15 04:01:42;;;;;;;5.75;4.32;;;8.60;99.90;;;;;;5029851;28;20037;-69
2022/02/15 04:04:47;;;;;;;5.85;3.70;;;8.60;99.90;;;;;;5030579;28;20041;-70
2022/02/15 04:07:51;;;;;;;4.78;3.45;;;8.60;99.90;;;;;;5029893;28;20048;-68
2022/02/15 04:10:57;;;;;;;4.22;3.50;;;8.60;99.90;;;;;;5029626;28;20052;-69
2022/02/15 04:14:05;;;;;;;5.95;3.28;;;8.60;99.90;;;;;;5029724;28;20044;-69
2022/02/15 04:17:09;;;;;;;5.65;3.42;;;8.70;99.90;;;;;;5029465;28;20062;-69
2022/02/15 04:20:16;;;;;;;6.28;3.65;;;8.70;99.90;;;;;;5029060;28;20054;-69
2022/02/15 04:23:20;;;;;;;9.38;4.70;;;8.80;99.90;;;;;;5029554;28;20041;-69
2022/02/15 04:26:25;;;;;;;8.77;5.25;;;8.80;99.90;;;;;;5029475;28;20056;-68
2022/02/15 04:29:30;;;;;;;11.65;5.40;;;8.80;99.90;;;;;;5028988;28;20481;-68
2022/02/15 04:32:36;;;;;;;12.32;4.90;;;8.90;99.90;;;;;;5028673;28;20048;-69
2022/02/15 04:35:40;;;;;;;8.80;4.15;;;8.90;99.90;;;;;;5029383;28;20048;-69
2022/02/15 04:38:45;;;;;;;16.70;4.90;;;9.00;99.90;;;;;;5028786;28;20046;-68
2022/02/15 04:41:49;;;;;;;8.88;5.18;;;9.10;99.90;;;;;;5029547;28;20056;-68
2022/02/15 04:44:58;;;;;;;5.85;4.50;;;9.20;99.90;;;;;;5029666;28;20592;-68
2022/02/15 04:48:15;;;;;;;8.07;4.63;;;9.10;99.90;;;;;;5033138;28;20362;-68
2022/02/15 04:51:20;;;;;;;9.85;4.63;;;9.00;99.90;;;;;;5033976;28;20048;-68
2022/02/15 04:54:28;;;;;;;9.88;4.72;;;8.90;99.90;;;;;;5033208;28;20048;-68
2022/02/15 04:57:31;;;;;;;12.60;4.45;;;9.00;99.90;;;;;;5033128;28;20048;-68
2022/02/15 05:00:41;;;;;;;9.80;4.95;;;9.00;99.90;;;;;;5033220;28;20051;-68
2022/02/15 05:04:48;;;;;;;12.85;4.57;;;9.10;99.90;;;;;;5033453;28;20503;-69
2022/02/15 05:07:35;;;;;;;8.15;4.55;;;9.10;99.90;;;;;;5033219;28;20044;-67
2022/02/15 05:10:41;;;;;;;8.43;3.90;;;9.10;99.90;;;;;;5033368;28;20037;-68
2022/02/15 05:13:45;;;;;;;10.80;4.55;;;9.10;99.90;;;;;;5033065;28;20040;-68
2022/02/15 05:17:01;;;;;;;13.35;4.50;;;9.10;99.90;;;;;;5032977;28;20053;-69
2022/02/15 05:20:09;;;;;;;12.02;4.72;;;9.20;99.90;;;;;;5032583;28;20040;-68
2022/02/15 05:23:15;;;;;;;11.95;4.53;;;9.10;99.90;;;;;;5032616;28;20392;-68
2022/02/15 05:26:21;;;;;;;11.35;4.00;;;9.00;99.90;;;;;;5032601;28;20056;-68
2022/02/15 05:29:44;;;;;;;14.70;4.25;;;9.10;99.90;;;;;;5031765;28;20060;-69
2022/02/15 05:33:01;;;;;;;8.50;4.75;;;8.90;99.90;;;;;;5032256;28;20052;-69
2022/02/15 05:36:05;;;;;;;8.40;4.10;;;8.80;99.90;;;;;;5033053;28;20654;-71
2022/02/15 05:39:14;;;;;;;10.55;4.05;;;8.70;99.90;;;;;;5031808;28;20496;-70
2022/02/15 05:42:29;;;;;;;10.68;4.10;;;8.70;99.90;;;;;;5032273;28;20044;-71
2022/02/15 05:45:33;;;;;;;8.15;3.45;;;8.70;99.90;;;;;;5032240;28;20343;-71
2022/02/15 05:48:48;;;;;;;7.47;3.30;;;8.70;99.90;;;;;;5031698;28;20040;-68
2022/02/15 05:52:10;;;;;;;;;;;8.70;99.90;;;;;;5033454;28;20053;-69
2022/02/15 05:55:15;;;;;;;6.82;2.97;;;8.70;99.90;;;;;;5044333;28;19916;-74
2022/02/15 05:58:20;;;;;;;5.05;1.30;;;8.40;99.90;;;;;;5021386;28;20374;-71
2022/02/15 06:01:26;;;;;;;3.50;1.58;;;8.00;99.90;;;;;;5031981;28;20037;-70
2022/02/15 06:04:30;;;;;;;6.43;1.60;;;7.80;99.90;;;;;;5031546;28;20052;-72
2022/02/15 06:07:40;;;;;;;2.20;1.23;;;7.70;99.90;;;;;;5031624;28;20040;-71
2022/02/15 06:10:56;;;;;;;3.80;1.40;;;7.60;99.90;;;;;;5031353;28;20042;-71
2022/02/15 06:14:09;;;;;;;3.05;1.42;;;7.60;99.90;;;;;;5031044;28;20030;-71
2022/02/15 06:26:44;;;;;;;3.78;1.50;;;7.50;99.90;;;;;;5031958;28;20037;-70
2022/02/15 06:30:21;;;;;;;3.47;1.45;;;7.60;99.90;;;;;;5019308;28;20041;-69
2022/02/15 06:33:34;;;;;;;3.40;1.20;;;7.60;99.90;;;;;;5031742;28;20048;-70
2022/02/15 06:36:39;;;;;;;3.55;1.48;;;7.60;99.90;;;;;;5031151;28;20030;-70
2022/02/15 06:39:46;;;;;;;1.33;0.98;;;7.50;99.90;;;;;;5030542;28;20034;-71
2022/02/15 06:42:59;;;;;;;2.35;0.98;;;7.50;99.90;;;;;;5030977;28;20037;-71
2022/02/15 07:15:55;;;;;;;0.43;0.40;;;7.10;99.90;;;;;;5028660;28;20032;-70
2022/02/15 07:19:00;;;;;;;0.95;0.47;;;7.10;99.90;;;;;;5028227;28;20492;-70
2022/02/15 07:22:24;;;;;;;1.45;0.80;;;7.10;99.90;;;;;;5012463;28;20056;-70
2022/02/15 07:25:42;;;;;;;1.38;0.45;;;7.10;99.90;;;;;;5035983;28;20049;-69
2022/02/15 07:29:13;;;;;;;2.58;0.65;;;7.10;99.90;;;;;;5028042;28;20484;-69
2022/02/15 07:32:37;;;;;;;2.40;0.70;;;7.10;99.90;;;;;;5027525;28;20037;-70
2022/02/15 07:35:43;;;;;;;2.58;0.80;;;7.20;99.90;;;;;;5029382;28;20041;-69
2022/02/15 07:38:47;;;;;;;7.50;1.02;;;7.30;99.90;;;;;;5030204;28;20044;-69
2022/02/15 07:41:51;;;;;;;1.83;1.00;;;7.30;99.90;;;;;;5034052;28;20045;-69
2022/02/15 07:45:04;;;;;;;4.10;0.80;;;7.40;99.90;;;;;;5034373;28;20482;-69
2022/02/15 07:48:10;;;;;;;2.17;0.70;;;7.50;99.90;;;;;;5021318;28;20041;-68
2022/02/15 07:51:17;;;;;;;3.30;0.80;;;7.60;99.90;;;;;;5034300;28;20041;-68
2022/02/15 07:54:21;;;;;;;2.28;0.90;;;7.70;99.90;;;;;;5027758;28;20045;-69
2022/02/15 07:57:25;;;;;;;4.72;1.83;;;7.80;99.90;;;;;;5025393;28;20389;-69
2022/02/15 08:00:30;;;;;;;4.05;1.00;;;8.00;99.90;;;;;;5030785;28;20038;-69
2022/02/15 08:03:35;;;;;;;2.55;1.23;;;8.30;99.90;;;;;;5027212;28;20033;-68
2022/02/15 08:06:43;;;;;;;3.42;0.73;;;8.40;99.90;;;;;;5021826;28;20044;-68
2022/02/15 08:09:48;;;;;;;3.42;1.38;;;8.70;99.90;;;;;;5025768;28;20052;-68
2022/02/15 08:12:57;;;;;;;3.25;1.33;;;8.90;99.90;;;;;;5021949;28;20052;-69
2022/02/15 08:16:02;;;;;;;4.60;1.40;;;8.80;99.90;;;;;;5023065;28;20048;-69
2022/02/15 08:19:06;;;;;;;4.65;1.00;;;8.70;99.90;;;;;;5025493;28;20048;-68
2022/02/15 08:22:11;;;;;;;11.95;1.83;;;8.50;99.90;;;;;;5013350;28;20050;-68
2022/02/15 08:25:18;;;;;;;3.58;0.80;;;8.50;99.90;;;;;;5025401;28;20059;-68
2022/02/15 08:28:23;;;;;;;4.05;1.02;;;8.40;99.90;;;;;;5024646;28;20033;-69
2022/02/15 08:31:28;;;;;;;4.88;1.20;;;8.40;99.90;;;;;;5017165;28;20033;-69
2022/02/15 08:34:33;;;;;;;2.45;1.10;;;8.50;99.90;;;;;;5029101;28;20041;-68
2022/02/15 08:37:37;;;;;;;3.03;1.02;;;8.50;99.90;;;;;;5027377;28;20044;-69
2022/02/15 08:40:41;;;;;;;4.63;1.20;;;8.40;99.90;;;;;;5026723;28;20061;-68
2022/02/15 08:43:48;;;;;;;2.38;0.98;;;8.30;99.90;;;;;;5022277;28;20393;-68
2022/02/15 08:46:55;;;;;;;4.68;1.20;;;8.10;99.90;;;;;;5013807;28;20038;-72
2022/02/15 08:49:59;;;;;;;4.47;1.55;;;7.90;99.90;;;;;;5029574;28;20071;-72
2022/02/15 08:53:03;;;;;;;3.88;1.40;;;7.70;99.90;;;;;;5018970;28;20041;-70
2022/02/15 08:56:08;;;;;;;3.45;1.35;;;7.60;99.90;;;;;;5028380;28;20044;-72
2022/02/15 08:59:12;;;;;;;5.55;2.10;;;7.50;99.90;;;;;;5028761;28;20060;-73
2022/02/15 09:02:17;;;;;;;4.10;2.25;;;7.40;99.90;;;;;;5030178;28;20054;-71
2022/02/15 09:05:21;;;;;;;7.03;2.60;;;7.40;99.90;;;;;;5031487;28;20046;-71
2022/02/15 09:08:25;;;;;;;4.63;1.80;;;7.40;99.90;;;;;;5030568;28;20049;-69
2022/02/15 09:11:29;;;;;;;4.55;2.10;;;7.40;99.90;;;;;;5029280;28;20081;-70
2022/02/15 09:14:33;;;;;;;3.47;1.95;;;7.50;99.90;;;;;;5024485;28;20041;-70
2022/02/15 09:17:39;;;;;;;4.68;1.75;;;7.60;99.90;;;;;;5021113;28;20042;-70
2022/02/15 09:20:43;;;;;;;2.95;1.50;;;7.60;99.90;;;;;;5030081;28;20390;-70
2022/02/15 09:23:47;;;;;;;3.83;3.15;;;7.60;99.90;;;;;;5029172;28;20018;-69
2022/02/15 09:26:56;;;;;;;4.88;0.88;;;7.70;99.90;;;;;;5010690;28;20489;-70
2022/02/15 09:30:00;;;;;;;1.70;0.88;;;7.70;99.90;;;;;;5027813;28;20490;-69
2022/02/15 09:33:06;;;;;;;4.32;1.08;;;7.70;99.90;;;;;;5033033;28;20507;-69
2022/02/15 09:36:11;;;;;;;1.58;0.75;;;7.70;99.90;;;;;;5032875;28;20431;-70
2022/02/15 09:39:15;;;;;;;3.65;1.02;;;7.80;99.90;;;;;;5033178;28;20049;-69
2022/02/15 09:42:20;;;;;;;3.15;1.10;;;7.80;99.90;;;;;;5023519;28;20041;-69
2022/02/15 09:45:25;;;;;;;3.58;1.35;;;7.90;99.90;;;;;;5033202;28;20041;-69
2022/02/15 09:48:30;;;;;;;4.75;1.70;;;8.00;99.90;;;;;;5025148;28;20045;-68
2022/02/15 09:51:33;;;;;;;2.65;1.67;;;8.10;99.90;;;;;;5032425;28;20472;-69
2022/02/15 09:54:39;;;;;;;6.57;1.80;;;8.20;99.90;;;;;;5018207;28;20392;-69
2022/02/15 09:57:43;;;;;;;4.28;2.45;;;8.20;99.90;;;;;;5026270;28;20499;-69
2022/02/15 10:00:46;;;;;;;3.75;2.35;;;8.20;99.90;;;;;;5027847;28;20048;-69
2022/02/15 10:04:00;;;;;;;5.18;1.67;;;8.20;99.90;;;;;;5029421;28;20049;-69
2022/02/15 10:07:06;;;;;;;5.95;1.73;;;8.20;99.90;;;;;;5027445;28;20042;-70
2022/02/15 10:10:10;;;;;;;3.97;2.00;;;8.30;99.90;;;;;;5027646;28;20042;-69
2022/02/15 10:13:14;;;;;;;8.18;4.03;;;8.40;99.90;;;;;;5023938;28;20044;-69
2022/02/15 10:16:18;;;;;;;7.10;2.13;;;8.40;99.90;;;;;;5027190;28;20025;-69
2022/02/15 10:19:27;;;;;;;5.80;3.03;;;8.30;99.90;;;;;;5023197;28;20393;-69
2022/02/15 10:22:36;;;;;;;9.88;6.28;;;8.20;99.90;;;;;;5029063;28;20037;-69
2022/02/15 10:25:42;;;;;;;4.07;3.08;;;8.30;99.90;;;;;;5031800;28;20052;-69
2022/02/15 10:28:47;;;;;;;5.38;3.47;;;8.30;99.90;;;;;;5045806;28;20040;-69
2022/02/15 10:31:59;;;;;;;7.35;3.85;;;8.30;99.90;;;;;;5045710;28;20055;-68
2022/02/15 10:35:04;;;;;;;13.13;8.98;;;8.30;99.90;;;;;;5044940;28;20038;-69
2022/02/15 10:38:09;;;;;;;7.78;4.13;;;8.30;99.90;;;;;;5038830;28;20044;-69
2022/02/15 10:41:16;;;;;;;16.98;4.88;;;8.40;99.90;;;;;;5044166;28;20057;-69
2022/02/15 10:44:20;;;;;;;6.20;3.78;;;8.50;99.90;;;;;;5025941;28;20045;-69
2022/02/15 10:47:30;;;;;;;13.65;5.18;;;8.40;99.90;;;;;;5031117;28;20041;-68
2022/02/15 10:50:37;;;;;;;8.98;4.30;;;8.60;99.90;;;;;;5028482;28;20044;-68
2022/02/15 10:53:42;;;;;;;6.70;3.63;;;8.60;99.90;;;;;;5028892;28;20033;-69
2022/02/15 10:56:47;;;;;;;6.07;3.72;;;8.60;99.90;;;;;;5026859;28;20040;-68
2022/02/15 10:59:54;;;;;;;8.02;3.15;;;8.80;99.90;;;;;;5035527;28;20037;-68
2022/02/15 11:03:00;;;;;;;4.30;2.60;;;8.70;99.90;;;;;;5027755;28;20041;-69
2022/02/15 11:06:09;;;;;;;5.57;3.55;;;8.90;99.90;;;;;;5030488;28;20037;-68
2022/02/15 11:09:19;;;;;;;9.43;3.58;;;8.80;99.90;;;;;;5028604;28;20056;-69
2022/02/15 11:12:28;;;;;;;9.57;3.20;;;8.60;99.90;;;;;;5025671;28;20590;-68
2022/02/15 11:15:35;;;;;;;9.30;3.53;;;8.50;99.90;;;;;;5020286;28;20400;-68
2022/02/15 11:18:40;;;;;;;12.13;3.00;;;8.60;99.90;;;;;;5024238;28;20388;-68
2022/02/15 11:21:54;;;;;;;10.80;3.60;;;8.60;99.90;;;;;;5030672;28;20369;-68
2022/02/15 11:24:59;;;;;;;9.40;3.22;;;8.50;99.90;;;;;;5025147;28;20123;-68
2022/02/15 11:28:16;;;;;;;9.55;4.97;;;8.80;99.90;;;;;;5024940;28;20598;-68
2022/02/15 11:31:28;;;;;;;5.38;2.90;;;9.30;99.90;;;;;;5027492;28;20029;-68
2022/02/15 11:34:34;;;;;;;11.27;6.00;;;9.40;99.90;;;;;;5026677;28;20037;-70
2022/02/15 11:37:38;;;;;;;9.55;3.30;;;9.50;99.90;;;;;;5026521;28;20040;-69
2022/02/15 11:40:42;;;;;;;7.78;2.60;;;9.70;99.90;;;;;;5027940;28;20048;-69
2022/02/15 11:43:57;;;;;;;9.70;2.58;;;9.80;99.90;;;;;;5017662;28;20518;-69
2022/02/15 11:47:35;;;;;;;7.95;4.20;;;9.90;99.90;;;;;;5029113;28;20068;-68
2022/02/15 11:50:49;;;;;;;9.45;2.40;;;10.00;99.90;;;;;;5026980;28;20049;-69
2022/02/15 11:53:56;;;;;;;5.97;1.90;;;9.80;99.90;;;;;;5028527;28;20048;-68
2022/02/15 11:57:01;;;;;;;6.82;2.85;;;9.90;99.90;;;;;;5026796;28;20045;-69
2022/02/15 12:00:06;;;;;;;7.43;2.70;;;10.10;99.90;;;;;;5029046;28;20038;-69
2022/02/15 12:03:17;;;;;;;5.63;2.00;;;10.10;99.90;;;;;;5033166;28;20044;-70
2022/02/15 12:06:22;;;;;;;7.82;2.13;;;10.00;99.90;;;;;;5026684;28;20372;-69
2022/02/15 12:09:33;;;;;;;7.05;2.10;;;10.00;99.90;;;;;;5024115;28;20048;-69
2022/02/15 12:12:42;;;;;;;12.18;4.97;;;10.30;99.90;;;;;;5023682;28;20057;-69
2022/02/15 12:15:51;;;;;;;8.15;2.17;;;10.60;99.90;;;;;;5027997;28;20037;-71
2022/02/15 12:18:56;;;;;;;5.88;1.50;;;10.50;99.90;;;;;;5018736;28;20041;-68
2022/02/15 12:22:16;;;;;;;8.38;4.15;;;9.70;99.90;;;;;;5022096;28;20048;-69
2022/02/15 12:25:25;;;;;;;6.05;1.80;;;9.90;99.90;;;;;;5026200;28;20133;-69
2022/02/15 12:28:31;;;;;;;8.88;2.13;;;9.70;99.90;;;;;;5026095;28;20038;-69
2022/02/15 12:31:36;;;;;;;6.43;1.65;;;9.70;99.90;;;;;;5027562;28;20026;-70
2022/02/15 12:34:42;;;;;;;5.75;1.58;;;9.70;99.90;;;;;;5024237;28;20042;-68
2022/02/15 12:37:49;;;;;;;5.38;1.50;;;9.40;99.90;;;;;;5027728;28;20507;-69
2022/02/15 12:40:54;;;;;;;3.92;1.45;;;9.60;99.90;;;;;;5024509;28;20647;-70
2022/02/15 12:44:00;;;;;;;4.43;1.45;;;9.80;99.90;;;;;;5026570;28;20040;-71
2022/02/15 12:47:06;;;;;;;4.18;1.20;;;9.90;99.90;;;;;;5024103;28;20040;-71
2022/02/15 12:50:14;;;;;;;5.22;1.40;;;10.10;99.90;;;;;;5022947;28;20033;-69
2022/02/15 12:53:18;;;;;;;6.65;1.98;;;10.00;99.90;;;;;;5026111;28;20041;-71
2022/02/15 12:56:26;;;;;;;6.10;1.42;;;10.60;99.90;;;;;;5026241;28;20040;-70
2022/02/15 12:59:32;;;;;;;10.30;1.52;;;10.70;99.90;;;;;;5023259;28;20041;-69
2022/02/15 13:02:37;;;;;;;5.95;2.22;;;10.70;99.90;;;;;;5015666;28;20045;-71
2022/02/15 13:05:41;;;;;;;4.90;1.42;;;10.50;99.90;;;;;;5026197;28;20519;-69
2022/02/15 13:08:52;;;;;;;4.57;1.33;;;10.40;99.90;;;;;;5041066;28;20048;-70
2022/02/15 13:12:01;;;;;;;2.87;1.03;;;10.00;99.90;;;;;;5025165;28;20056;-69
2022/02/15 13:15:11;;;;;;;2.13;1.10;;;9.50;99.90;;;;;;5030316;28;20036;-69
2022/02/15 13:18:17;;;;;;;2.20;1.35;;;8.50;99.90;;;;;;5025201;28;20041;-71
2022/02/15 13:21:23;;;;;;;1.75;0.90;;;8.50;99.90;;;;;;5030080;28;20515;-69
2022/02/15 13:24:28;;;;;;;1.95;0.90;;;8.50;99.90;;;;;;5030497;28;20041;-70
2022/02/15 13:27:35;;;;;;;3.10;0.90;;;8.60;99.90;;;;;;5025660;28;20034;-69
2022/02/15 13:30:40;;;;;;;5.72;1.13;;;8.80;99.90;;;;;;5029984;28;20056;-71
2022/02/15 13:33:44;;;;;;;3.03;0.65;;;9.50;99.90;;;;;;5030389;28;20040;-71
2022/02/15 13:36:48;;;;;;;1.83;0.90;;;10.00;99.90;;;;;;5028770;28;20041;-70
2022/02/15 13:39:52;;;;;;;3.38;1.00;;;10.20;99.90;;;;;;5027804;28;20057;-70
2022/02/15 13:42:58;;;;;;;3.78;0.65;;;10.30;99.90;;;;;;5029484;28;20488;-69
2022/02/15 13:46:02;;;;;;;3.00;1.10;;;10.20;99.90;;;;;;5032038;28;20052;-70
2022/02/15 13:49:07;;;;;;;2.13;0.70;;;9.90;99.90;;;;;;5025610;28;20044;-69
2022/02/15 13:52:11;;;;;;;3.55;0.82;;;9.60;99.90;;;;;;5026194;28;20053;-69
2022/02/15 13:55:16;;;;;;;4.45;0.80;;;9.50;99.90;;;;;;5025753;28;20048;-70
2022/02/15 13:58:20;;;;;;;3.28;1.08;;;9.30;99.90;;;;;;5027920;28;20388;-71
2022/02/15 14:01:24;;;;;;;6.28;1.10;;;8.80;99.90;;;;;;5030726;28;20048;-70
2022/02/15 14:04:29;;;;;;;4.13;1.05;;;8.70;99.90;;;;;;5023814;28;20030;-70
2022/02/15 14:07:34;;;;;;;5.18;1.45;;;8.70;99.90;;;;;;5026407;28;20045;-71
2022/02/15 14:10:38;;;;;;;3.35;1.23;;;8.80;99.90;;;;;;5027903;28;20041;-70
2022/02/15 14:13:43;;;;;;;2.28;1.00;;;9.00;99.90;;;;;;5027062;28;20665;-70
2022/02/15 14:16:47;;;;;;;7.22;1.13;;;9.20;99.90;;;;;;5031246;28;20033;-70
2022/02/15 14:19:51;;;;;;;3.53;0.95;;;9.30;99.90;;;;;;5025114;28;20037;-70
2022/02/15 14:22:55;;;;;;;3.35;1.27;;;9.30;99.90;;;;;;5031167;28;20052;-70
2022/02/15 14:26:00;;;;;;;6.65;1.50;;;9.30;99.90;;;;;;5028590;28;20045;-70
2022/02/15 14:29:04;;;;;;;5.43;2.03;;;9.20;99.90;;;;;;5025059;28;20049;-70
2022/02/15 14:32:08;;;;;;;5.82;1.70;;;9.00;99.90;;;;;;5029485;28;20048;-69
2022/02/15 15:28:44;;;;;;;9.27;3.40;;;9.10;99.90;;;;;;5025669;28;20045;-69
2022/02/15 15:31:52;;;;;;;13.27;3.00;;;9.20;99.90;;;;;;5026788;28;20040;-69
2022/02/15 15:34:57;;;;;;;8.98;3.55;;;9.10;99.90;;;;;;5029261;28;20048;-69
2022/02/15 15:38:01;;;;;;;8.30;3.38;;;9.10;99.90;;;;;;5027160;28;20401;-69
2022/02/15 15:41:05;;;;;;;13.73;4.68;;;9.20;99.90;;;;;;5028870;28;20029;-68
2022/02/15 15:44:11;;;;;;;9.13;3.35;;;9.30;99.90;;;;;;5016830;28;20044;-68
2022/02/15 15:47:17;;;;;;;12.40;2.53;;;9.30;99.90;;;;;;5029056;28;20040;-69
2022/02/15 15:50:21;;;;;;;5.95;2.70;;;9.30;99.90;;;;;;5029458;28;20056;-69
2022/02/15 15:53:26;;;;;;;11.10;4.65;;;9.20;99.90;;;;;;5024280;28;20046;-68
2022/02/15 15:56:33;;;;;;;9.98;4.35;;;9.20;99.90;;;;;;5030343;28;20065;-70
2022/02/15 15:59:38;;;;;;;19.80;7.28;;;9.20;99.90;;;;;;5027795;28;20056;-68
2022/02/15 16:02:42;;;;;;;15.95;5.28;;;9.10;99.90;;;;;;5026155;28;20048;-68
2022/02/15 16:05:46;;;;;;;16.25;8.18;;;9.00;99.90;;;;;;5025507;28;20730;-68
2022/02/15 16:08:51;;;;;;;10.00;4.00;;;8.90;99.90;;;;;;5020878;28;20056;-68
2022/02/15 16:11:55;;;;;;;19.23;4.93;;;8.60;99.90;;;;;;5028705;28;20235;-69
2022/02/15 16:14:59;;;;;;;15.00;3.70;;;8.50;99.90;;;;;;5028779;28;20049;-68
2022/02/15 16:18:04;;;;;;;10.10;3.65;;;8.50;99.90;;;;;;5029646;28;20052;-69
2022/02/15 16:21:11;;;;;;;8.65;2.90;;;8.40;99.90;;;;;;5022375;28;20044;-68
2022/02/15 16:24:16;;;;;;;14.43;6.22;;;8.30;99.90;;;;;;5024373;28;20048;-69
2022/02/15 16:27:20;;;;;;;12.23;4.82;;;8.30;99.90;;;;;;5026390;28;20052;-68
2022/02/15 16:30:31;;;;;;;14.13;6.68;;;8.40;99.90;;;;;;5029617;28;20048;-69
2022/02/15 16:33:36;;;;;;;19.70;9.75;;;8.30;99.90;;;;;;5032483;28;20044;-68
2022/02/15 16:36:40;;;;;;;14.30;4.88;;;8.30;99.90;;;;;;5032504;28;20057;-69
2022/02/15 16:39:45;;;;;;;13.15;4.75;;;8.20;99.90;;;;;;5032547;28;20288;-69
2022/02/15 16:42:49;;;;;;;20.40;4.20;;;8.20;99.90;;;;;;5036149;28;20065;-69
2022/02/15 16:45:54;;;;;;;6.68;3.80;;;8.10;99.90;;;;;;5037586;28;20508;-69
2022/02/15 16:48:59;;;;;;;11.25;4.70;;;8.10;99.90;;;;;;5034566;28;20045;-70
2022/02/15 16:52:04;;;;;;;9.57;4.43;;;8.20;99.90;;;;;;5034328;28;20048;-69
2022/02/15 16:55:09;;;;;;;7.78;4.07;;;8.20;99.90;;;;;;5034876;28;20052;-69
2022/02/15 16:58:13;;;;;;;21.45;11.13;;;8.20;99.90;;;;;;5034501;28;20056;-69
2022/02/15 17:01:18;;;;;;;36.95;18.52;;;8.10;99.90;;;;;;5032750;28;20392;-69
2022/02/15 17:04:22;;;;;;;32.00;16.88;;;8.10;99.90;;;;;;5033634;28;20044;-69
2022/02/15 17:07:26;;;;;;;18.38;9.77;;;8.00;99.90;;;;;;5033329;28;20045;-69
2022/02/15 17:10:31;;;;;;;16.40;8.98;;;8.00;99.90;;;;;;5033211;28;20048;-69
2022/02/15 17:13:35;;;;;;;18.15;7.05;;;8.00;99.90;;;;;;5032897;28;20397;-69
2022/02/15 17:16:41;;;;;;;10.55;5.40;;;7.90;99.90;;;;;;5033040;28;20041;-68
2022/02/15 17:19:45;;;;;;;18.27;6.90;;;7.90;99.90;;;;;;5055202;28;20045;-69
2022/02/15 17:22:52;;;;;;;10.35;3.58;;;8.00;99.90;;;;;;5033111;28;20060;-68
2022/02/15 17:25:58;;;;;;;7.50;2.80;;;8.00;99.90;;;;;;5033359;28;20523;-68
2022/02/15 17:29:03;;;;;;;5.20;2.20;;;8.10;99.90;;;;;;5032670;28;20048;-69
2022/02/15 17:32:09;;;;;;;9.20;1.98;;;8.20;99.90;;;;;;5033362;28;20049;-69
2022/02/15 17:35:13;;;;;;;10.25;2.22;;;8.30;99.90;;;;;;5033074;28;20531;-69
2022/02/15 17:38:17;;;;;;;12.77;6.55;;;8.30;99.90;;;;;;5032790;28;20045;-68
2022/02/15 17:41:23;;;;;;;20.23;10.45;;;8.30;99.90;;;;;;5033266;28;20056;-69
2022/02/15 17:44:29;;;;;;;11.38;7.10;;;8.10;99.90;;;;;;5032958;28;20072;-69
2022/02/15 17:47:33;;;;;;;9.55;6.05;;;7.90;99.90;;;;;;5033154;28;20049;-69
2022/02/15 17:50:40;;;;;;;11.50;6.75;;;7.60;99.90;;;;;;5033008;28;20056;-69